sensor_id;sensor_type;location;lat;lon;timestamp;P1;durP1;ratioP1;P2;durP2;ratioP2
77736;SDS011;66903;59.926;30.404;2023-06-14T00:01:42;2.33;;;1.05;;
77736;SDS011;66903;59.926;30.404;2023-06-14T00:06:45;2.20;;;0.88;;
77736;SDS011;66903;59.926;30.404;2023-06-14T00:12:32;3.85;;;0.93;;
77736;SDS011;66903;59.926;30.404;2023-06-14T00:17:32;2.78;;;0.90;;
77736;SDS011;66903;59.926;30.404;2023-06-14T00:22:34;3.40;;;0.90;;
77736;SDS011;66903;59.926;30.404;2023-06-14T00:33:13;6.13;;;0.98;;
77736;SDS011;66903;59.926;30.404;2023-06-14T00:38:14;3.63;;;1.00;;
77736;SDS011;66903;59.926;30.404;2023-06-14T00:43:51;3.45;;;0.95;;
77736;SDS011;66903;59.926;30.404;2023-06-14T00:49:10;3.50;;;0.98;;
77736;SDS011;66903;59.926;30.404;2023-06-14T00:54:12;3.50;;;1.00;;
77736;SDS011;66903;59.926;30.404;2023-06-14T01:04:50;2.83;;;1.10;;
77736;SDS011;66903;59.926;30.404;2023-06-14T01:20:59;2.83;;;0.98;;
77736;SDS011;66903;59.926;30.404;2023-06-14T01:26:00;3.55;;;1.10;;
77736;SDS011;66903;59.926;30.404;2023-06-14T01:31:03;3.20;;;0.88;;
77736;SDS011;66903;59.926;30.404;2023-06-14T01:36:04;3.78;;;1.15;;
77736;SDS011;66903;59.926;30.404;2023-06-14T01:41:42;2.70;;;0.90;;
77736;SDS011;66903;59.926;30.404;2023-06-14T01:46:45;2.30;;;0.90;;
77736;SDS011;66903;59.926;30.404;2023-06-14T01:52:04;3.35;;;1.10;;
77736;SDS011;66903;59.926;30.404;2023-06-14T01:57:06;3.20;;;1.13;;
77736;SDS011;66903;59.926;30.404;2023-06-14T02:12:46;2.25;;;0.82;;
77736;SDS011;66903;59.926;30.404;2023-06-14T02:23:06;4.85;;;1.13;;
77736;SDS011;66903;59.926;30.404;2023-06-14T02:28:08;3.38;;;1.15;;
77736;SDS011;66903;59.926;30.404;2023-06-14T02:49:06;2.92;;;0.93;;
77736;SDS011;66903;59.926;30.404;2023-06-14T02:54:25;3.40;;;1.33;;
77736;SDS011;66903;59.926;30.404;2023-06-14T02:59:25;3.28;;;0.95;;
77736;SDS011;66903;59.926;30.404;2023-06-14T03:09:48;3.15;;;1.00;;
77736;SDS011;66903;59.926;30.404;2023-06-14T03:14:49;2.67;;;0.93;;
77736;SDS011;66903;59.926;30.404;2023-06-14T03:20:09;2.75;;;0.90;;
77736;SDS011;66903;59.926;30.404;2023-06-14T03:25:09;2.75;;;0.90;;
77736;SDS011;66903;59.926;30.404;2023-06-14T03:30:10;1.85;;;0.70;;
77736;SDS011;66903;59.926;30.404;2023-06-14T03:35:11;2.63;;;1.00;;
77736;SDS011;66903;59.926;30.404;2023-06-14T03:40:49;2.45;;;0.90;;
77736;SDS011;66903;59.926;30.404;2023-06-14T03:45:49;2.10;;;0.82;;
77736;SDS011;66903;59.926;30.404;2023-06-14T03:50:50;2.50;;;0.80;;
77736;SDS011;66903;59.926;30.404;2023-06-14T03:55:51;2.50;;;0.90;;
77736;SDS011;66903;59.926;30.404;2023-06-14T04:06:49;2.88;;;0.90;;
77736;SDS011;66903;59.926;30.404;2023-06-14T04:17:46;2.10;;;0.77;;
77736;SDS011;66903;59.926;30.404;2023-06-14T04:22:47;3.38;;;0.95;;
77736;SDS011;66903;59.926;30.404;2023-06-14T04:27:47;2.55;;;0.93;;
77736;SDS011;66903;59.926;30.404;2023-06-14T04:33:24;2.80;;;0.70;;
77736;SDS011;66903;59.926;30.404;2023-06-14T04:38:47;2.25;;;0.90;;
77736;SDS011;66903;59.926;30.404;2023-06-14T04:44:06;1.90;;;0.70;;
77736;SDS011;66903;59.926;30.404;2023-06-14T04:49:30;1.95;;;0.63;;
77736;SDS011;66903;59.926;30.404;2023-06-14T04:59:52;3.30;;;1.10;;
77736;SDS011;66903;59.926;30.404;2023-06-14T05:05:12;3.78;;;1.10;;
77736;SDS011;66903;59.926;30.404;2023-06-14T05:10:13;5.22;;;1.40;;
77736;SDS011;66903;59.926;30.404;2023-06-14T05:15:13;2.53;;;0.90;;
77736;SDS011;66903;59.926;30.404;2023-06-14T05:20:15;3.17;;;0.90;;
77736;SDS011;66903;59.926;30.404;2023-06-14T05:25:34;2.33;;;0.90;;
77736;SDS011;66903;59.926;30.404;2023-06-14T05:30:34;2.70;;;0.80;;
77736;SDS011;66903;59.926;30.404;2023-06-14T05:35:35;2.72;;;0.98;;
77736;SDS011;66903;59.926;30.404;2023-06-14T05:45:56;2.53;;;0.90;;
77736;SDS011;66903;59.926;30.404;2023-06-14T05:51:16;2.05;;;0.80;;
77736;SDS011;66903;59.926;30.404;2023-06-14T05:56:53;1.65;;;0.52;;
77736;SDS011;66903;59.926;30.404;2023-06-14T06:01:54;2.90;;;0.82;;
77736;SDS011;66903;59.926;30.404;2023-06-14T06:06:55;1.75;;;0.70;;
77736;SDS011;66903;59.926;30.404;2023-06-14T06:17:14;2.63;;;0.70;;
77736;SDS011;66903;59.926;30.404;2023-06-14T06:27:54;1.95;;;0.77;;
77736;SDS011;66903;59.926;30.404;2023-06-14T06:32:58;2.10;;;0.70;;
77736;SDS011;66903;59.926;30.404;2023-06-14T06:38:17;1.67;;;0.52;;
77736;SDS011;66903;59.926;30.404;2023-06-14T06:48:55;13.68;;;1.02;;
77736;SDS011;66903;59.926;30.404;2023-06-14T06:53:55;7.15;;;0.75;;
77736;SDS011;66903;59.926;30.404;2023-06-14T06:58:56;1.67;;;0.77;;
77736;SDS011;66903;59.926;30.404;2023-06-14T07:15:31;1.95;;;0.80;;
77736;SDS011;66903;59.926;30.404;2023-06-14T07:20:32;1.75;;;0.57;;
77736;SDS011;66903;59.926;30.404;2023-06-14T07:31:30;3.22;;;1.00;;
77736;SDS011;66903;59.926;30.404;2023-06-14T07:42:45;2.88;;;0.90;;
77736;SDS011;66903;59.926;30.404;2023-06-14T07:48:05;3.55;;;1.08;;
77736;SDS011;66903;59.926;30.404;2023-06-14T07:58:25;4.10;;;1.13;;
77736;SDS011;66903;59.926;30.404;2023-06-14T08:03:44;3.78;;;1.27;;
77736;SDS011;66903;59.926;30.404;2023-06-14T08:09:03;4.00;;;1.10;;
77736;SDS011;66903;59.926;30.404;2023-06-14T08:14:03;3.53;;;1.13;;
77736;SDS011;66903;59.926;30.404;2023-06-14T08:19:04;3.53;;;1.23;;
77736;SDS011;66903;59.926;30.404;2023-06-14T08:24:05;2.65;;;0.95;;
77736;SDS011;66903;59.926;30.404;2023-06-14T08:29:27;3.83;;;1.27;;
77736;SDS011;66903;59.926;30.404;2023-06-14T08:39:48;3.00;;;0.93;;
77736;SDS011;66903;59.926;30.404;2023-06-14T08:45:26;5.13;;;1.10;;
77736;SDS011;66903;59.926;30.404;2023-06-14T08:50:27;3.83;;;1.30;;
77736;SDS011;66903;59.926;30.404;2023-06-14T08:55:31;4.60;;;0.73;;
77736;SDS011;66903;59.926;30.404;2023-06-14T09:00:38;2.78;;;0.75;;
77736;SDS011;66903;59.926;30.404;2023-06-14T09:05:41;5.97;;;1.02;;
77736;SDS011;66903;59.926;30.404;2023-06-14T09:11:01;3.00;;;1.00;;
77736;SDS011;66903;59.926;30.404;2023-06-14T09:16:20;2.38;;;0.75;;
77736;SDS011;66903;59.926;30.404;2023-06-14T09:26:58;4.53;;;0.75;;
77736;SDS011;66903;59.926;30.404;2023-06-14T09:31:59;4.32;;;0.80;;
77736;SDS011;66903;59.926;30.404;2023-06-14T09:37:00;2.28;;;0.70;;
77736;SDS011;66903;59.926;30.404;2023-06-14T09:42:00;1.88;;;0.70;;
77736;SDS011;66903;59.926;30.404;2023-06-14T09:47:20;3.88;;;0.90;;
77736;SDS011;66903;59.926;30.404;2023-06-14T09:52:24;2.28;;;0.73;;
77736;SDS011;66903;59.926;30.404;2023-06-14T10:02:49;2.55;;;0.80;;
77736;SDS011;66903;59.926;30.404;2023-06-14T10:08:14;4.53;;;1.20;;
77736;SDS011;66903;59.926;30.404;2023-06-14T10:13:16;3.03;;;0.98;;
77736;SDS011;66903;59.926;30.404;2023-06-14T10:18:53;2.83;;;0.80;;
77736;SDS011;66903;59.926;30.404;2023-06-14T10:30:15;3.40;;;0.95;;
77736;SDS011;66903;59.926;30.404;2023-06-14T10:35:13;4.70;;;1.20;;
77736;SDS011;66903;59.926;30.404;2023-06-14T10:46:12;2.88;;;1.02;;
77736;SDS011;66903;59.926;30.404;2023-06-14T10:57:10;4.35;;;0.95;;
77736;SDS011;66903;59.926;30.404;2023-06-14T11:14:02;1.98;;;0.70;;
77736;SDS011;66903;59.926;30.404;2023-06-14T11:30:18;2.60;;;0.93;;
77736;SDS011;66903;59.926;30.404;2023-06-14T11:35:21;2.15;;;0.82;;
77736;SDS011;66903;59.926;30.404;2023-06-14T11:46:18;2.08;;;0.75;;
77736;SDS011;66903;59.926;30.404;2023-06-14T11:51:37;2.97;;;0.80;;
77736;SDS011;66903;59.926;30.404;2023-06-14T11:56:38;2.15;;;0.80;;
77736;SDS011;66903;59.926;30.404;2023-06-14T12:01:39;2.40;;;0.70;;
77736;SDS011;66903;59.926;30.404;2023-06-14T12:07:11;2.03;;;0.70;;
77736;SDS011;66903;59.926;30.404;2023-06-14T12:18:10;2.83;;;0.90;;
77736;SDS011;66903;59.926;30.404;2023-06-14T12:23:11;2.35;;;0.80;;
77736;SDS011;66903;59.926;30.404;2023-06-14T12:28:12;3.13;;;0.75;;
77736;SDS011;66903;59.926;30.404;2023-06-14T12:33:12;1.85;;;0.70;;
77736;SDS011;66903;59.926;30.404;2023-06-14T12:38:32;2.33;;;0.70;;
77736;SDS011;66903;59.926;30.404;2023-06-14T12:43:53;1.90;;;0.68;;
77736;SDS011;66903;59.926;30.404;2023-06-14T12:48:54;3.10;;;0.90;;
77736;SDS011;66903;59.926;30.404;2023-06-14T13:04:34;3.03;;;0.80;;
77736;SDS011;66903;59.926;30.404;2023-06-14T13:09:53;2.17;;;0.70;;
77736;SDS011;66903;59.926;30.404;2023-06-14T13:21:08;2.28;;;0.88;;
77736;SDS011;66903;59.926;30.404;2023-06-14T13:26:09;2.00;;;0.80;;
77736;SDS011;66903;59.926;30.404;2023-06-14T13:42:07;2.50;;;0.77;;
77736;SDS011;66903;59.926;30.404;2023-06-14T13:47:26;2.00;;;0.70;;
77736;SDS011;66903;59.926;30.404;2023-06-14T13:52:45;2.95;;;1.35;;
77736;SDS011;66903;59.926;30.404;2023-06-14T13:57:46;2.22;;;0.75;;
77736;SDS011;66903;59.926;30.404;2023-06-14T14:03:24;1.88;;;0.60;;
77736;SDS011;66903;59.926;30.404;2023-06-14T14:08:24;2.30;;;0.80;;
77736;SDS011;66903;59.926;30.404;2023-06-14T14:19:41;7.85;;;0.90;;
77736;SDS011;66903;59.926;30.404;2023-06-14T14:25:01;2.75;;;0.68;;
77736;SDS011;66903;59.926;30.404;2023-06-14T14:30:20;2.13;;;0.80;;
77736;SDS011;66903;59.926;30.404;2023-06-14T14:35:23;10.82;;;0.85;;
77736;SDS011;66903;59.926;30.404;2023-06-14T14:40:26;2.28;;;0.90;;
77736;SDS011;66903;59.926;30.404;2023-06-14T14:45:44;8.40;;;0.93;;
77736;SDS011;66903;59.926;30.404;2023-06-14T14:56:04;3.13;;;1.00;;
77736;SDS011;66903;59.926;30.404;2023-06-14T15:01:04;3.05;;;1.00;;
77736;SDS011;66903;59.926;30.404;2023-06-14T15:12:01;2.13;;;0.73;;
77736;SDS011;66903;59.926;30.404;2023-06-14T15:17:22;2.70;;;1.00;;
77736;SDS011;66903;59.926;30.404;2023-06-14T15:22:24;3.40;;;1.52;;
77736;SDS011;66903;59.926;30.404;2023-06-14T15:27:25;2.78;;;1.00;;
77736;SDS011;66903;59.926;30.404;2023-06-14T15:33:02;5.43;;;0.90;;
77736;SDS011;66903;59.926;30.404;2023-06-14T15:43:42;2.60;;;0.82;;
77736;SDS011;66903;59.926;30.404;2023-06-14T15:49:01;3.72;;;0.70;;
77736;SDS011;66903;59.926;30.404;2023-06-14T15:59:38;7.63;;;1.00;;
77736;SDS011;66903;59.926;30.404;2023-06-14T16:15:36;6.40;;;0.77;;
77736;SDS011;66903;59.926;30.404;2023-06-14T16:21:14;10.05;;;1.08;;
77736;SDS011;66903;59.926;30.404;2023-06-14T16:32:12;2.83;;;0.80;;
77736;SDS011;66903;59.926;30.404;2023-06-14T16:37:13;2.58;;;0.80;;
77736;SDS011;66903;59.926;30.404;2023-06-14T16:42:13;2.35;;;0.90;;
77736;SDS011;66903;59.926;30.404;2023-06-14T16:47:14;2.95;;;0.82;;
77736;SDS011;66903;59.926;30.404;2023-06-14T16:52:14;1.80;;;0.68;;
77736;SDS011;66903;59.926;30.404;2023-06-14T16:57:33;4.30;;;0.93;;
77736;SDS011;66903;59.926;30.404;2023-06-14T17:02:34;2.58;;;0.82;;
77736;SDS011;66903;59.926;30.404;2023-06-14T17:07:34;2.88;;;1.10;;
77736;SDS011;66903;59.926;30.404;2023-06-14T17:12:35;5.28;;;0.90;;
77736;SDS011;66903;59.926;30.404;2023-06-14T17:28:51;3.97;;;1.13;;
77736;SDS011;66903;59.926;30.404;2023-06-14T17:34:11;5.72;;;1.90;;
77736;SDS011;66903;59.926;30.404;2023-06-14T17:44:49;6.05;;;2.38;;
77736;SDS011;66903;59.926;30.404;2023-06-14T18:01:24;5.80;;;1.30;;
77736;SDS011;66903;59.926;30.404;2023-06-14T18:06:43;5.78;;;1.63;;
77736;SDS011;66903;59.926;30.404;2023-06-14T18:12:02;6.20;;;1.85;;
77736;SDS011;66903;59.926;30.404;2023-06-14T18:22:22;6.25;;;1.98;;
77736;SDS011;66903;59.926;30.404;2023-06-14T18:27:22;7.05;;;1.73;;
77736;SDS011;66903;59.926;30.404;2023-06-14T18:32:23;6.93;;;1.48;;
77736;SDS011;66903;59.926;30.404;2023-06-14T18:37:46;6.35;;;1.90;;
77736;SDS011;66903;59.926;30.404;2023-06-14T18:43:05;4.07;;;1.40;;
77736;SDS011;66903;59.926;30.404;2023-06-14T18:48:06;5.53;;;1.27;;
77736;SDS011;66903;59.926;30.404;2023-06-14T18:53:25;5.40;;;1.27;;
77736;SDS011;66903;59.926;30.404;2023-06-14T18:58:26;4.47;;;1.25;;
77736;SDS011;66903;59.926;30.404;2023-06-14T19:03:27;7.53;;;1.42;;
77736;SDS011;66903;59.926;30.404;2023-06-14T19:14:24;13.93;;;1.35;;
77736;SDS011;66903;59.926;30.404;2023-06-14T19:25:04;5.88;;;1.13;;
77736;SDS011;66903;59.926;30.404;2023-06-14T19:30:05;3.47;;;1.08;;
77736;SDS011;66903;59.926;30.404;2023-06-14T19:35:06;2.80;;;0.98;;
77736;SDS011;66903;59.926;30.404;2023-06-14T19:40:26;3.05;;;0.98;;
77736;SDS011;66903;59.926;30.404;2023-06-14T19:45:27;3.20;;;1.10;;
77736;SDS011;66903;59.926;30.404;2023-06-14T19:50:46;3.83;;;0.98;;
77736;SDS011;66903;59.926;30.404;2023-06-14T20:01:25;2.53;;;0.80;;
77736;SDS011;66903;59.926;30.404;2023-06-14T20:06:26;6.00;;;1.40;;
77736;SDS011;66903;59.926;30.404;2023-06-14T20:11:45;8.75;;;1.30;;
77736;SDS011;66903;59.926;30.404;2023-06-14T20:16:45;4.13;;;1.48;;
77736;SDS011;66903;59.926;30.404;2023-06-14T20:22:04;4.28;;;1.55;;
77736;SDS011;66903;59.926;30.404;2023-06-14T20:27:05;4.88;;;1.70;;
77736;SDS011;66903;59.926;30.404;2023-06-14T20:32:07;5.00;;;2.10;;
77736;SDS011;66903;59.926;30.404;2023-06-14T20:37:07;5.22;;;2.30;;
77736;SDS011;66903;59.926;30.404;2023-06-14T20:42:08;4.63;;;1.75;;
77736;SDS011;66903;59.926;30.404;2023-06-14T20:47:27;3.92;;;1.58;;
77736;SDS011;66903;59.926;30.404;2023-06-14T20:53:05;5.03;;;1.45;;
77736;SDS011;66903;59.926;30.404;2023-06-14T21:03:44;3.53;;;1.27;;
77736;SDS011;66903;59.926;30.404;2023-06-14T21:08:44;6.03;;;1.70;;
77736;SDS011;66903;59.926;30.404;2023-06-14T21:13:45;4.25;;;1.42;;
77736;SDS011;66903;59.926;30.404;2023-06-14T21:19:04;4.30;;;1.55;;
77736;SDS011;66903;59.926;30.404;2023-06-14T21:29:42;6.93;;;2.97;;
77736;SDS011;66903;59.926;30.404;2023-06-14T21:35:20;8.98;;;3.80;;
77736;SDS011;66903;59.926;30.404;2023-06-14T21:40:20;9.60;;;3.90;;
77736;SDS011;66903;59.926;30.404;2023-06-14T21:45:21;10.85;;;4.00;;
77736;SDS011;66903;59.926;30.404;2023-06-14T21:50:22;7.65;;;3.17;;
77736;SDS011;66903;59.926;30.404;2023-06-14T22:01:01;6.50;;;2.10;;
77736;SDS011;66903;59.926;30.404;2023-06-14T22:06:02;5.60;;;1.90;;
77736;SDS011;66903;59.926;30.404;2023-06-14T22:11:21;7.45;;;1.95;;
77736;SDS011;66903;59.926;30.404;2023-06-14T22:16:40;4.70;;;1.77;;
77736;SDS011;66903;59.926;30.404;2023-06-14T22:21:42;4.68;;;1.90;;
77736;SDS011;66903;59.926;30.404;2023-06-14T22:27:01;3.95;;;1.73;;
77736;SDS011;66903;59.926;30.404;2023-06-14T22:32:39;4.60;;;1.58;;
77736;SDS011;66903;59.926;30.404;2023-06-14T22:38:17;4.72;;;1.80;;
77736;SDS011;66903;59.926;30.404;2023-06-14T22:48:57;4.65;;;1.85;;
77736;SDS011;66903;59.926;30.404;2023-06-14T22:54:00;4.65;;;1.83;;
77736;SDS011;66903;59.926;30.404;2023-06-14T22:59:01;4.22;;;1.50;;
77736;SDS011;66903;59.926;30.404;2023-06-14T23:09:40;9.43;;;1.63;;
77736;SDS011;66903;59.926;30.404;2023-06-14T23:15:00;4.15;;;1.60;;
77736;SDS011;66903;59.926;30.404;2023-06-14T23:20:19;4.75;;;1.40;;
77736;SDS011;66903;59.926;30.404;2023-06-14T23:30:41;3.25;;;1.30;;
77736;SDS011;66903;59.926;30.404;2023-06-14T23:35:45;3.95;;;1.60;;
77736;SDS011;66903;59.926;30.404;2023-06-14T23:41:04;3.35;;;1.17;;
77736;SDS011;66903;59.926;30.404;2023-06-14T23:46:05;4.15;;;1.38;;
77736;SDS011;66903;59.926;30.404;2023-06-14T23:51:05;3.38;;;1.30;;
77736;SDS011;66903;59.926;30.404;2023-06-14T23:56:06;3.40;;;1.33;;
